Terminal Aerodrome Forecast
Issued by NWS Cleveland, OH

Home | Current Version | Previous Version | Graphics & Text | Print | Product List | Glossary Off
Versions: 1 2 3 4 5 6 7 8 9 10 11 12 13 14 15 16 17 18 19 20 21 22

694
FTUS41 KCLE 210730 AAA
TAFYNG
TAF AMD
KYNG 210730Z 2108/2206 VRB04KT 5SM BR SCT006 OVC045
      TEMPO 2109/2111 2SM BR BKN006
     FM211400 18008KT 6SM BR BKN035
     FM211800 19012KT P6SM BKN035=

USA.gov is the U.S. government's official web portal to all federal, state and local government web resources and services.